createdAt,value
2023-03-21T00:02:20.194Z,66.01
2023-03-21T00:05:15.295Z,66.22
2023-03-21T00:08:02.660Z,66.14
2023-03-21T00:10:56.285Z,66.39
2023-03-21T00:13:44.488Z,65.99
2023-03-21T00:16:35.481Z,66.18
2023-03-21T00:19:22.251Z,66.04
2023-03-21T00:22:09.137Z,66.21
2023-03-21T00:24:55.484Z,65.78
2023-03-21T00:28:00.966Z,65.83
2023-03-21T00:30:46.558Z,65.82
2023-03-21T00:33:32.338Z,66.14
2023-03-21T00:36:18.247Z,66.25
2023-03-21T00:39:06.177Z,66.27
2023-03-21T00:41:52.284Z,66.18
2023-03-21T00:44:37.496Z,66.02
2023-03-21T00:47:25.718Z,66.24
2023-03-21T00:50:12.034Z,66.37
2023-03-21T00:52:57.340Z,66.21
2023-03-21T00:55:43.266Z,66.47
2023-03-21T00:58:28.777Z,67.32
2023-03-21T01:01:14.087Z,67.01
2023-03-21T01:04:05.411Z,67.46
2023-03-21T01:06:51.029Z,67.62
2023-03-21T01:09:36.453Z,67.91
2023-03-21T01:12:21.791Z,67.52
2023-03-21T01:15:07.825Z,68.34
2023-03-21T01:17:53.119Z,68.92
2023-03-21T01:20:41.652Z,69.02
2023-03-21T01:23:29.268Z,68.73
2023-03-21T01:26:15.473Z,68.81
2023-03-21T01:29:02.626Z,69.00
2023-03-21T01:31:48.270Z,68.97
2023-03-21T01:34:33.597Z,69.02
2023-03-21T01:37:20.003Z,69.12
2023-03-21T01:40:12.780Z,70.03
2023-03-21T01:42:59.850Z,70.02
2023-03-21T01:46:10.343Z,70.10
2023-03-21T01:49:24.906Z,70.17
2023-03-21T01:52:33.343Z,70.59
2023-03-21T01:55:22.444Z,70.68
2023-03-21T01:58:18.650Z,70.58
2023-03-21T02:01:38.398Z,70.43
2023-03-21T02:04:28.215Z,70.63
2023-03-21T02:07:36.295Z,70.45
2023-03-21T02:10:28.157Z,70.53
2023-03-21T02:13:18.798Z,70.91
2023-03-21T02:16:15.456Z,71.02
2023-03-21T02:19:11.540Z,71.24
2023-03-21T02:22:20.688Z,71.25
2023-03-21T02:25:26.155Z,71.26
2023-03-21T02:28:27.395Z,71.20
2023-03-21T02:31:36.389Z,71.70
2023-03-21T02:34:40.604Z,71.50
2023-03-21T02:37:37.667Z,71.59
2023-03-21T02:40:42.646Z,71.26
2023-03-21T02:43:31.831Z,71.59
2023-03-21T02:46:33.513Z,71.26
2023-03-21T02:49:52.390Z,71.49
2023-03-21T02:52:39.961Z,70.94
2023-03-21T02:55:32.625Z,71.10
2023-03-21T02:58:25.562Z,71.50
2023-03-21T03:01:15.399Z,71.35
2023-03-21T03:04:17.111Z,71.20
2023-03-21T03:07:11.804Z,71.63
2023-03-21T03:10:21.820Z,71.57
2023-03-21T03:13:35.591Z,71.54
2023-03-21T03:16:36.802Z,71.83
2023-03-21T03:19:31.203Z,71.56
2023-03-21T03:22:36.080Z,71.82
2023-03-21T03:25:43.353Z,71.90
2023-03-21T03:28:38.534Z,71.62
2023-03-21T03:31:38.061Z,71.17
2023-03-21T03:34:29.700Z,71.39
2023-03-21T03:37:20.413Z,71.79
2023-03-21T03:40:12.663Z,71.35
2023-03-21T03:43:26.482Z,71.76
2023-03-21T03:46:18.982Z,71.84
2023-03-21T03:49:10.807Z,71.47
2023-03-21T03:52:01.418Z,71.55
2023-03-21T03:54:52.901Z,71.71
2023-03-21T03:57:40.898Z,71.73
2023-03-21T04:00:27.582Z,71.89
2023-03-21T04:03:13.570Z,71.98
2023-03-21T04:05:59.417Z,71.40
2023-03-21T04:08:44.746Z,71.47
2023-03-21T04:11:30.463Z,71.89
2023-03-21T04:14:16.548Z,71.57
2023-03-21T04:17:03.541Z,71.77
2023-03-21T04:19:55.528Z,71.99
2023-03-21T04:22:43.364Z,71.83
2023-03-21T04:25:33.847Z,71.86
2023-03-21T04:28:22.126Z,71.61
2023-03-21T04:31:28.692Z,71.96
2023-03-21T04:34:32.935Z,71.91
2023-03-21T04:37:23.520Z,72.27
2023-03-21T04:40:11.580Z,72.55
2023-03-21T04:42:57.230Z,72.47
2023-03-21T04:45:42.740Z,72.35
2023-03-21T04:48:28.769Z,72.51
2023-03-21T04:51:16.768Z,72.80
2023-03-21T04:54:02.604Z,73.00
2023-03-21T04:56:48.311Z,72.43
2023-03-21T04:59:34.853Z,73.06
2023-03-21T05:02:21.274Z,73.14
2023-03-21T05:05:11.265Z,72.78
2023-03-21T05:07:56.864Z,73.16
2023-03-21T05:10:42.399Z,72.66
2023-03-21T05:13:28.691Z,73.04
2023-03-21T05:16:13.967Z,72.65
2023-03-21T05:19:04.990Z,72.74
2023-03-21T05:21:55.326Z,72.51
2023-03-21T05:24:50.140Z,72.60
2023-03-21T05:28:06.835Z,72.74
2023-03-21T05:30:52.337Z,72.81
2023-03-21T05:33:37.979Z,72.47
2023-03-21T05:36:23.312Z,72.63
2023-03-21T05:39:09.186Z,73.12
2023-03-21T05:41:59.073Z,73.04
2023-03-21T05:44:46.147Z,72.82
2023-03-21T05:47:32.644Z,72.86
2023-03-21T05:50:19.042Z,72.94
2023-03-21T05:53:14.061Z,73.26
2023-03-21T05:56:00.443Z,73.14
2023-03-21T05:58:58.962Z,73.07
2023-03-21T06:01:44.430Z,73.54
2023-03-21T06:04:33.604Z,73.42
2023-03-21T06:07:19.228Z,73.21
2023-03-21T06:10:05.716Z,73.17
2023-03-21T06:12:51.965Z,73.76
2023-03-21T06:15:47.641Z,73.86
2023-03-21T06:18:37.464Z,74.24
2023-03-21T06:21:50.707Z,74.71
2023-03-21T06:24:36.270Z,74.79
2023-03-21T06:27:22.774Z,74.91
2023-03-21T06:30:12.232Z,75.59
2023-03-21T06:33:07.049Z,76.26
2023-03-21T06:35:54.103Z,76.18
2023-03-21T06:38:40.500Z,77.46
2023-03-21T06:41:27.122Z,78.54
2023-03-21T06:44:22.051Z,79.79
2023-03-21T06:47:16.301Z,80.80
2023-03-21T06:50:06.760Z,80.96
2023-03-21T06:52:59.682Z,81.99
2023-03-21T06:55:53.091Z,81.84
2023-03-21T06:58:39.269Z,82.31
2023-03-21T07:01:30.917Z,82.98
2023-03-21T07:04:23.835Z,82.88
2023-03-21T07:07:09.801Z,82.82
2023-03-21T07:09:55.610Z,82.81
2023-03-21T07:12:41.565Z,82.96
2023-03-21T07:15:50.511Z,82.34
2023-03-21T07:18:36.073Z,82.22
2023-03-21T07:21:21.683Z,82.30
2023-03-21T07:24:07.196Z,82.00
2023-03-21T07:26:54.079Z,81.26
2023-03-21T07:29:39.845Z,81.51
2023-03-21T07:32:30.035Z,81.37
2023-03-21T07:35:17.685Z,81.71
2023-03-21T07:38:04.802Z,81.79
2023-03-21T07:40:50.755Z,81.54
2023-03-21T07:43:39.001Z,81.45
2023-03-21T07:46:29.082Z,81.77
2023-03-21T07:49:15.445Z,81.68
2023-03-21T07:52:04.620Z,81.57
2023-03-21T07:54:51.284Z,81.20
2023-03-21T07:57:41.382Z,81.39
2023-03-21T08:00:27.523Z,81.17
2023-03-21T08:03:13.318Z,81.04
2023-03-21T08:06:02.040Z,80.54
2023-03-21T08:08:51.975Z,80.70
2023-03-21T08:11:37.806Z,80.57
2023-03-21T08:14:23.473Z,80.94
2023-03-21T08:17:09.629Z,80.84
2023-03-21T08:19:54.883Z,80.71
2023-03-21T08:22:40.650Z,80.58
2023-03-21T08:25:26.260Z,80.70
2023-03-21T08:28:11.912Z,80.47
2023-03-21T08:30:57.433Z,80.37
2023-03-21T08:33:42.999Z,80.41
2023-03-21T08:36:28.412Z,80.91
2023-03-21T08:39:13.962Z,80.43
2023-03-21T08:41:59.768Z,80.09
2023-03-21T08:44:45.950Z,80.29
2023-03-21T08:47:33.490Z,80.26
2023-03-21T08:50:24.796Z,80.34
2023-03-21T08:53:10.564Z,80.68
2023-03-21T08:55:55.968Z,81.04
2023-03-21T08:58:41.500Z,81.32
2023-03-21T09:01:27.364Z,82.14
2023-03-21T09:04:13.155Z,82.55
2023-03-21T09:07:01.500Z,83.21
2023-03-21T09:09:53.407Z,83.93
2023-03-21T09:12:43.852Z,84.30
2023-03-21T09:15:29.704Z,84.07
2023-03-21T09:18:16.335Z,84.46
2023-03-21T09:21:02.210Z,84.86
2023-03-21T09:23:48.763Z,85.03
2023-03-21T09:26:34.445Z,85.58
2023-03-21T09:29:21.458Z,85.40
2023-03-21T09:32:08.386Z,85.17
2023-03-21T09:34:55.664Z,85.41
2023-03-21T09:37:42.489Z,85.04
2023-03-21T09:40:49.767Z,85.46
2023-03-21T09:44:06.836Z,85.63
2023-03-21T09:46:58.463Z,85.78
2023-03-21T09:49:51.887Z,86.36
2023-03-21T09:53:11.299Z,86.30
2023-03-21T09:55:57.370Z,85.98
2023-03-21T09:58:54.754Z,86.33
2023-03-21T10:01:45.022Z,86.24
2023-03-21T10:04:31.983Z,86.31
2023-03-21T10:07:19.982Z,86.64
2023-03-21T10:10:06.346Z,86.36
2023-03-21T10:12:53.919Z,86.70
2023-03-21T10:15:39.429Z,86.08
2023-03-21T10:18:29.193Z,86.51
2023-03-21T10:21:56.462Z,86.52
2023-03-21T10:24:34.800Z,86.29
2023-03-21T10:27:21.332Z,85.92
2023-03-21T10:30:12.524Z,85.65
2023-03-21T10:33:05.159Z,85.60
2023-03-21T10:35:55.606Z,85.39
2023-03-21T10:38:48.608Z,84.47
2023-03-21T10:41:35.011Z,84.43
2023-03-21T10:44:21.031Z,83.46
2023-03-21T10:47:09.038Z,83.78
2023-03-21T10:50:11.104Z,83.56
2023-03-21T10:53:00.754Z,82.88
2023-03-21T10:55:51.404Z,82.64
2023-03-21T10:58:44.874Z,83.19
2023-03-21T11:01:40.693Z,83.19
2023-03-21T11:04:29.197Z,82.98
2023-03-21T11:07:16.077Z,83.22
2023-03-21T11:10:14.602Z,82.30
2023-03-21T11:13:08.036Z,82.73
2023-03-21T11:15:56.716Z,82.16
2023-03-21T11:18:44.899Z,82.83
2023-03-21T11:21:37.168Z,82.46
2023-03-21T11:24:22.553Z,82.91
2023-03-21T11:27:09.072Z,81.91
2023-03-21T11:29:55.225Z,81.74
2023-03-21T11:32:42.744Z,81.44
2023-03-21T11:35:34.936Z,80.68
2023-03-21T11:38:27.412Z,81.27
2023-03-21T11:41:32.729Z,81.58
2023-03-21T11:44:30.886Z,81.25
2023-03-21T11:47:16.529Z,81.19
2023-03-21T11:50:05.212Z,81.60
2023-03-21T11:52:56.348Z,82.02
2023-03-21T11:55:56.962Z,81.40
2023-03-21T11:58:51.057Z,81.56
2023-03-21T12:01:54.591Z,81.50
2023-03-21T12:04:51.052Z,80.55
2023-03-21T12:07:57.124Z,81.39
2023-03-21T12:11:05.435Z,81.27
2023-03-21T12:14:00.409Z,81.98
2023-03-21T12:17:03.971Z,81.68
2023-03-21T12:20:11.055Z,82.30
2023-03-21T12:23:03.675Z,82.13
2023-03-21T12:26:00.898Z,82.27
2023-03-21T12:29:08.541Z,82.72
2023-03-21T12:32:15.892Z,82.57
2023-03-21T12:35:25.697Z,82.92
2023-03-21T12:38:37.496Z,82.71
2023-03-21T12:41:52.881Z,82.31
2023-03-21T12:44:44.490Z,82.21
2023-03-21T12:47:33.869Z,82.40
2023-03-21T12:50:26.380Z,81.87
2023-03-21T12:53:41.734Z,81.09
2023-03-21T12:56:52.437Z,80.63
2023-03-21T12:59:56.088Z,80.46
2023-03-21T13:02:52.042Z,80.27
2023-03-21T13:05:54.193Z,79.26
2023-03-21T13:09:05.947Z,78.51
2023-03-21T13:11:57.259Z,77.76
2023-03-21T13:14:56.885Z,78.08
2023-03-21T13:17:47.675Z,78.26
2023-03-21T13:20:45.966Z,78.72
2023-03-21T13:23:37.326Z,78.25
2023-03-21T13:26:40.101Z,77.73
2023-03-21T13:29:47.008Z,77.56
2023-03-21T13:32:34.187Z,76.57
2023-03-21T13:35:27.713Z,75.89
2023-03-21T13:38:21.205Z,73.70
2023-03-21T13:41:15.625Z,72.63
2023-03-21T13:44:04.241Z,72.29
2023-03-21T13:47:05.045Z,70.20
2023-03-21T13:50:21.512Z,70.51
2023-03-21T13:53:16.072Z,70.85
2023-03-21T13:56:16.945Z,70.34
2023-03-21T13:59:03.911Z,69.99
2023-03-21T14:02:26.749Z,70.05
2023-03-21T14:05:22.492Z,70.50
2023-03-21T14:08:24.474Z,71.19
2023-03-21T14:11:20.263Z,71.99
2023-03-21T14:14:06.157Z,72.18
2023-03-21T14:16:55.478Z,71.52
2023-03-21T14:19:41.106Z,70.39
2023-03-21T14:22:27.050Z,69.01
2023-03-21T14:25:15.444Z,70.38
2023-03-21T14:28:03.913Z,70.74
2023-03-21T14:30:55.808Z,69.41
2023-03-21T14:33:46.637Z,70.21
2023-03-21T14:36:38.897Z,70.86
2023-03-21T14:39:33.547Z,69.30
2023-03-21T14:42:20.893Z,69.16
2023-03-21T14:45:21.071Z,69.65
2023-03-21T14:48:13.100Z,69.13
2023-03-21T14:51:08.222Z,69.08
2023-03-21T14:53:53.702Z,69.29
2023-03-21T14:56:39.651Z,69.66
2023-03-21T14:59:32.445Z,70.15
2023-03-21T15:02:33.363Z,70.35
2023-03-21T15:05:39.660Z,69.79
2023-03-21T15:08:28.324Z,70.16
2023-03-21T15:11:13.987Z,69.69
2023-03-21T15:14:03.334Z,69.72
2023-03-21T15:16:49.235Z,69.57
2023-03-21T15:19:38.103Z,69.52
2023-03-21T15:22:38.372Z,69.73
2023-03-21T15:25:29.903Z,69.60
2023-03-21T15:28:16.780Z,69.94
2023-03-21T15:31:04.471Z,69.88
2023-03-21T15:33:52.766Z,69.88
2023-03-21T15:36:46.631Z,68.97
2023-03-21T15:39:36.009Z,69.79
2023-03-21T15:42:34.263Z,70.74
2023-03-21T15:45:26.958Z,71.23
2023-03-21T15:48:14.397Z,71.91
2023-03-21T15:51:03.919Z,72.12
2023-03-21T15:53:54.195Z,72.78
2023-03-21T15:56:42.353Z,72.80
2023-03-21T15:59:35.071Z,72.71
2023-03-21T16:02:24.335Z,73.19
2023-03-21T16:05:31.530Z,73.13
2023-03-21T16:08:27.578Z,73.29
2023-03-21T16:11:25.529Z,73.27
2023-03-21T16:14:11.207Z,73.16
2023-03-21T16:16:59.044Z,73.12
2023-03-21T16:19:44.666Z,73.12
2023-03-21T16:22:30.420Z,73.55
2023-03-21T16:25:16.319Z,72.95
2023-03-21T16:28:02.045Z,72.98
2023-03-21T16:30:47.401Z,73.00
2023-03-21T16:33:33.170Z,72.99
2023-03-21T16:36:27.448Z,73.17
2023-03-21T16:39:17.903Z,73.44
2023-03-21T16:42:03.459Z,73.44
2023-03-21T16:44:49.375Z,73.53
2023-03-21T16:47:34.760Z,73.72
2023-03-21T16:50:26.719Z,73.75
2023-03-21T16:53:12.258Z,73.57
2023-03-21T16:56:02.613Z,74.02
2023-03-21T16:58:48.481Z,73.95
2023-03-21T17:01:38.383Z,74.23
2023-03-21T17:04:24.799Z,74.27
2023-03-21T17:07:14.467Z,74.23
2023-03-21T17:10:00.215Z,74.47
2023-03-21T17:12:46.061Z,74.57
2023-03-21T17:15:31.859Z,74.38
2023-03-21T17:18:17.618Z,74.50
2023-03-21T17:21:03.237Z,75.33
2023-03-21T17:23:50.229Z,75.34
2023-03-21T17:26:36.602Z,75.37
2023-03-21T17:29:22.085Z,75.47
2023-03-21T17:32:07.414Z,75.34
2023-03-21T17:34:53.304Z,74.93
2023-03-21T17:37:39.026Z,75.07
2023-03-21T17:40:27.641Z,74.85
2023-03-21T17:43:17.053Z,74.51
2023-03-21T17:46:02.877Z,74.78
2023-03-21T17:48:49.246Z,74.50
2023-03-21T17:51:35.276Z,74.65
2023-03-21T17:54:20.999Z,74.28
2023-03-21T17:57:11.590Z,74.17
2023-03-21T17:59:57.229Z,74.09
2023-03-21T18:02:42.648Z,74.08
2023-03-21T18:05:28.078Z,73.84
2023-03-21T18:08:13.359Z,73.86
2023-03-21T18:10:59.034Z,73.51
2023-03-21T18:13:45.467Z,73.97
2023-03-21T18:16:31.440Z,74.12
2023-03-21T18:19:17.646Z,74.00
2023-03-21T18:22:03.642Z,74.24
2023-03-21T18:24:49.064Z,73.81
2023-03-21T18:27:35.339Z,74.21
2023-03-21T18:30:41.209Z,73.83
2023-03-21T18:33:28.665Z,74.31
2023-03-21T18:36:24.494Z,74.35
2023-03-21T18:39:10.746Z,74.03
2023-03-21T18:42:00.801Z,73.67
2023-03-21T18:44:48.415Z,74.05
2023-03-21T18:47:34.255Z,74.23
2023-03-21T18:50:20.516Z,74.37
2023-03-21T18:53:06.199Z,74.64
2023-03-21T18:55:52.622Z,74.68
2023-03-21T18:58:38.609Z,75.25
2023-03-21T19:01:24.236Z,75.17
2023-03-21T19:04:21.465Z,74.66
2023-03-21T19:07:11.141Z,74.35
2023-03-21T19:10:18.017Z,74.15
2023-03-21T19:13:02.915Z,74.24
2023-03-21T19:15:49.738Z,74.07
2023-03-21T19:21:41.488Z,75.21
2023-03-21T19:24:28.943Z,75.84
2023-03-21T19:27:15.028Z,75.84
2023-03-21T19:30:17.267Z,76.53
2023-03-21T19:33:02.801Z,76.77
2023-03-21T19:35:50.322Z,77.24
2023-03-21T19:38:36.093Z,76.75
2023-03-21T19:41:21.403Z,77.15
2023-03-21T19:44:06.833Z,77.02
2023-03-21T19:46:52.608Z,76.82
2023-03-21T19:52:47.222Z,76.33
2023-03-21T19:55:32.666Z,76.18
2023-03-21T19:58:22.705Z,76.16
2023-03-21T20:01:09.304Z,75.83
2023-03-21T20:03:54.802Z,75.55
2023-03-21T20:06:41.075Z,76.16
2023-03-21T20:12:34.653Z,75.33
2023-03-21T20:15:21.916Z,75.71
2023-03-21T20:18:08.835Z,75.23
2023-03-21T20:20:54.420Z,74.64
2023-03-21T20:23:39.851Z,74.48
2023-03-21T20:26:25.386Z,74.92
2023-03-21T20:30:05.382Z,74.75
2023-03-21T20:32:16.277Z,74.60
2023-03-21T20:35:13.751Z,75.28
2023-03-21T20:38:02.801Z,74.53
2023-03-21T20:40:48.196Z,74.44
2023-03-21T20:46:41.734Z,74.59
2023-03-21T20:49:29.505Z,75.17
2023-03-21T20:55:22.634Z,75.32
2023-03-21T20:58:30.216Z,75.41
2023-03-21T21:01:16.963Z,75.26
2023-03-21T21:04:02.891Z,75.59
2023-03-21T21:06:49.036Z,75.96
2023-03-21T21:09:34.833Z,75.88
2023-03-21T21:12:20.450Z,75.65
2023-03-21T21:15:08.500Z,75.60
2023-03-21T21:18:06.608Z,75.14
2023-03-21T21:20:54.257Z,75.68
2023-03-21T21:23:40.563Z,75.85
2023-03-21T21:26:26.239Z,75.52
2023-03-21T21:29:16.936Z,76.08
2023-03-21T21:32:02.582Z,75.63
2023-03-21T21:34:48.559Z,75.70
2023-03-21T21:37:34.153Z,76.09
2023-03-21T21:40:23.085Z,76.45
2023-03-21T21:43:08.662Z,76.33
2023-03-21T21:45:54.447Z,75.88
2023-03-21T21:48:41.189Z,75.86
2023-03-21T21:51:26.713Z,75.93
2023-03-21T21:54:18.001Z,75.82
2023-03-21T21:57:04.103Z,75.60
2023-03-21T21:59:54.303Z,75.80
2023-03-21T22:02:41.505Z,75.66
2023-03-21T22:05:27.846Z,75.38
2023-03-21T22:08:13.605Z,75.88
2023-03-21T22:11:03.468Z,75.72
2023-03-21T22:13:49.094Z,76.50
2023-03-21T22:16:34.798Z,76.50
2023-03-21T22:19:20.015Z,77.02
2023-03-21T22:22:05.326Z,77.37
2023-03-21T22:24:50.843Z,78.04
2023-03-21T22:27:36.619Z,78.76
2023-03-21T22:30:22.256Z,79.12
2023-03-21T22:33:09.907Z,79.13
2023-03-21T22:35:55.624Z,79.65
2023-03-21T22:38:41.942Z,79.66
2023-03-21T22:41:27.559Z,79.18
2023-03-21T22:44:14.947Z,78.66
2023-03-21T22:47:11.228Z,78.80
2023-03-21T22:49:57.000Z,78.41
2023-03-21T22:52:42.880Z,77.76
2023-03-21T22:55:28.140Z,77.54
2023-03-21T22:58:13.564Z,77.37
2023-03-21T23:01:02.575Z,77.48
2023-03-21T23:03:48.108Z,77.81
2023-03-21T23:06:33.661Z,78.17
2023-03-21T23:09:19.546Z,78.48
2023-03-21T23:12:05.387Z,78.80
2023-03-21T23:14:50.892Z,79.03
2023-03-21T23:17:36.235Z,79.63
2023-03-21T23:20:22.052Z,79.29
2023-03-21T23:23:07.605Z,79.12
2023-03-21T23:25:53.622Z,79.13
2023-03-21T23:28:39.197Z,79.14
2023-03-21T23:31:26.404Z,78.91
2023-03-21T23:34:12.552Z,78.79
2023-03-21T23:36:58.574Z,78.49
2023-03-21T23:39:45.365Z,78.50
2023-03-21T23:42:30.755Z,78.16
2023-03-21T23:45:16.256Z,77.83
2023-03-21T23:48:01.586Z,77.52
2023-03-21T23:50:47.253Z,77.41
2023-03-21T23:53:32.491Z,77.40
2023-03-21T23:56:20.567Z,77.27
2023-03-21T23:59:06.309Z,77.62
